sensor_id;sensor_type;location;lat;lon;timestamp;pressure;altitude;pressure_sealevel;temperature;humidity
49451;BME280;35336;48.400;10.886;2022-08-21T00:00:15;96309.06;;;15.23;100.00
49451;BME280;35336;48.400;10.886;2022-08-21T00:00:31;96332.59;;;15.40;100.00
49451;BME280;35336;48.400;10.886;2022-08-21T00:00:46;96364.22;;;15.56;100.00
49451;BME280;35336;48.400;10.886;2022-08-21T00:01:07;96369.34;;;15.58;100.00
49451;BME280;35336;48.400;10.886;2022-08-21T00:01:26;96376.59;;;15.57;100.00
49451;BME280;35336;48.400;10.886;2022-08-21T00:01:43;96360.78;;;15.49;100.00
49451;BME280;35336;48.400;10.886;2022-08-21T00:01:58;96365.03;;;15.57;100.00
49451;BME280;35336;48.400;10.886;2022-08-21T00:02:16;96339.59;;;15.41;100.00
49451;BME280;35336;48.400;10.886;2022-08-21T00:02:32;96318.53;;;15.26;100.00
49451;BME280;35336;48.400;10.886;2022-08-21T00:02:52;96373.91;;;15.57;100.00
49451;BME280;35336;48.400;10.886;2022-08-21T00:03:09;96344.84;;;15.36;100.00
49451;BME280;35336;48.400;10.886;2022-08-21T00:03:26;96366.53;;;15.53;100.00
49451;BME280;35336;48.400;10.886;2022-08-21T00:03:41;96363.59;;;15.54;100.00
49451;BME280;35336;48.400;10.886;2022-08-21T00:03:57;96332.47;;;15.35;100.00
49451;BME280;35336;48.400;10.886;2022-08-21T00:04:13;96370.19;;;15.59;100.00
49451;BME280;35336;48.400;10.886;2022-08-21T00:04:29;96372.63;;;15.60;100.00
49451;BME280;35336;48.400;10.886;2022-08-21T00:04:45;96371.84;;;15.60;100.00
49451;BME280;35336;48.400;10.886;2022-08-21T00:05:01;96350.03;;;15.49;100.00
49451;BME280;35336;48.400;10.886;2022-08-21T00:05:18;96360.25;;;15.59;100.00
49451;BME280;35336;48.400;10.886;2022-08-21T00:05:38;96362.94;;;15.59;100.00
49451;BME280;35336;48.400;10.886;2022-08-21T00:05:54;96377.22;;;15.60;100.00
49451;BME280;35336;48.400;10.886;2022-08-21T00:06:10;96370.63;;;15.55;100.00
49451;BME280;35336;48.400;10.886;2022-08-21T00:06:25;96366.53;;;15.53;100.00
49451;BME280;35336;48.400;10.886;2022-08-21T00:06:41;96347.66;;;15.41;100.00
49451;BME280;35336;48.400;10.886;2022-08-21T00:06:57;96347.66;;;15.41;100.00
49451;BME280;35336;48.400;10.886;2022-08-21T00:07:14;96376.59;;;15.57;100.00
49451;BME280;35336;48.400;10.886;2022-08-21T00:07:29;96363.47;;;15.49;100.00
49451;BME280;35336;48.400;10.886;2022-08-21T00:07:45;96349.56;;;15.40;100.00
49451;BME280;35336;48.400;10.886;2022-08-21T00:08:00;96373.31;;;15.55;100.00
49451;BME280;35336;48.400;10.886;2022-08-21T00:08:18;96376.00;;;15.55;100.00
49451;BME280;35336;48.400;10.886;2022-08-21T00:08:33;96373.78;;;15.52;100.00
49451;BME280;35336;48.400;10.886;2022-08-21T00:08:50;96373.31;;;15.55;100.00
49451;BME280;35336;48.400;10.886;2022-08-21T00:09:07;96364.53;;;15.48;100.00
49451;BME280;35336;48.400;10.886;2022-08-21T00:09:23;96374.97;;;15.56;100.00
49451;BME280;35336;48.400;10.886;2022-08-21T00:09:39;96352.81;;;15.43;100.00
49451;BME280;35336;48.400;10.886;2022-08-21T00:09:55;96373.09;;;15.57;100.00
49451;BME280;35336;48.400;10.886;2022-08-21T00:10:11;96350.97;;;15.43;100.00
49451;BME280;35336;48.400;10.886;2022-08-21T00:10:27;96327.31;;;15.33;100.00
49451;BME280;35336;48.400;10.886;2022-08-21T00:10:43;96368.63;;;15.51;100.00
49451;BME280;35336;48.400;10.886;2022-08-21T00:10:59;96346.38;;;15.44;100.00
49451;BME280;35336;48.400;10.886;2022-08-21T00:11:14;96357.44;;;15.54;100.00
49451;BME280;35336;48.400;10.886;2022-08-21T00:11:30;96371.00;;;15.59;100.00
49451;BME280;35336;48.400;10.886;2022-08-21T00:11:46;96346.38;;;15.44;100.00
49451;BME280;35336;48.400;10.886;2022-08-21T00:12:03;96347.22;;;15.44;100.00
49451;BME280;35336;48.400;10.886;2022-08-21T00:12:19;96359.88;;;15.55;100.00
49451;BME280;35336;48.400;10.886;2022-08-21T00:12:34;96363.59;;;15.54;100.00
49451;BME280;35336;48.400;10.886;2022-08-21T00:12:50;96344.31;;;15.46;100.00
49451;BME280;35336;48.400;10.886;2022-08-21T00:13:07;96368.19;;;15.54;100.00
49451;BME280;35336;48.400;10.886;2022-08-21T00:13:22;96356.94;;;15.45;100.00
49451;BME280;35336;48.400;10.886;2022-08-21T00:13:38;96318.97;;;15.23;100.00
49451;BME280;35336;48.400;10.886;2022-08-21T00:13:55;96369.81;;;15.55;100.00
49451;BME280;35336;48.400;10.886;2022-08-21T00:14:11;96355.88;;;15.46;100.00
49451;BME280;35336;48.400;10.886;2022-08-21T00:14:26;96354.91;;;15.40;100.00
49451;BME280;35336;48.400;10.886;2022-08-21T00:14:42;96295.22;;;15.08;100.00
49451;BME280;35336;48.400;10.886;2022-08-21T00:14:58;96352.13;;;15.47;100.00
49451;BME280;35336;48.400;10.886;2022-08-21T00:15:16;96351.19;;;15.42;100.00
49451;BME280;35336;48.400;10.886;2022-08-21T00:15:34;96345.47;;;15.38;100.00
49451;BME280;35336;48.400;10.886;2022-08-21T00:15:50;96369.47;;;15.51;100.00
49451;BME280;35336;48.400;10.886;2022-08-21T00:16:06;96367.34;;;15.53;100.00
49451;BME280;35336;48.400;10.886;2022-08-21T00:16:21;96365.56;;;15.47;100.00
49451;BME280;35336;48.400;10.886;2022-08-21T00:16:38;96351.41;;;15.40;100.00
49451;BME280;35336;48.400;10.886;2022-08-21T00:16:53;96373.56;;;15.54;100.00
49451;BME280;35336;48.400;10.886;2022-08-21T00:17:09;96367.34;;;15.53;100.00
49451;BME280;35336;48.400;10.886;2022-08-21T00:17:24;96351.41;;;15.40;100.00
49451;BME280;35336;48.400;10.886;2022-08-21T00:17:40;96366.53;;;15.53;100.00
49451;BME280;35336;48.400;10.886;2022-08-21T00:17:56;96366.53;;;15.53;100.00
49451;BME280;35336;48.400;10.886;2022-08-21T00:18:12;96340.53;;;15.35;100.00
49451;BME280;35336;48.400;10.886;2022-08-21T00:18:27;96356.34;;;15.43;100.00
49451;BME280;35336;48.400;10.886;2022-08-21T00:18:43;96373.56;;;15.54;100.00
49451;BME280;35336;48.400;10.886;2022-08-21T00:18:58;96346.88;;;15.40;100.00
49451;BME280;35336;48.400;10.886;2022-08-21T00:19:14;96358.72;;;15.51;100.00
49451;BME280;35336;48.400;10.886;2022-08-21T00:19:31;96369.81;;;15.55;100.00
49451;BME280;35336;48.400;10.886;2022-08-21T00:19:46;96350.97;;;15.43;100.00
49451;BME280;35336;48.400;10.886;2022-08-21T00:20:05;96324.84;;;15.32;100.00
49451;BME280;35336;48.400;10.886;2022-08-21T00:20:23;96357.44;;;15.54;100.00
49451;BME280;35336;48.400;10.886;2022-08-21T00:20:39;96348.88;;;15.45;100.00
49451;BME280;35336;48.400;10.886;2022-08-21T00:20:55;96335.88;;;15.42;100.00
49451;BME280;35336;48.400;10.886;2022-08-21T00:21:13;96351.09;;;15.48;100.00
49451;BME280;35336;48.400;10.886;2022-08-21T00:21:28;96364.81;;;15.59;100.00
49451;BME280;35336;48.400;10.886;2022-08-21T00:21:43;96324.16;;;15.36;100.00
49451;BME280;35336;48.400;10.886;2022-08-21T00:21:59;96335.88;;;15.42;100.00
49451;BME280;35336;48.400;10.886;2022-08-21T00:22:15;96355.41;;;15.49;100.00
49451;BME280;35336;48.400;10.886;2022-08-21T00:22:31;96365.03;;;15.57;100.00
49451;BME280;35336;48.400;10.886;2022-08-21T00:22:46;96362.81;;;15.54;100.00
49451;BME280;35336;48.400;10.886;2022-08-21T00:23:03;96357.66;;;15.52;100.00
49451;BME280;35336;48.400;10.886;2022-08-21T00:23:18;96339.97;;;15.45;100.00
49451;BME280;35336;48.400;10.886;2022-08-21T00:23:34;96363.16;;;15.57;100.00
49451;BME280;35336;48.400;10.886;2022-08-21T00:23:51;96354.97;;;15.52;100.00
49451;BME280;35336;48.400;10.886;2022-08-21T00:24:07;96367.72;;;15.57;100.00
49451;BME280;35336;48.400;10.886;2022-08-21T00:24:23;96364.22;;;15.56;100.00
49451;BME280;35336;48.400;10.886;2022-08-21T00:24:39;96351.09;;;15.48;100.00
49451;BME280;35336;48.400;10.886;2022-08-21T00:24:54;96357.06;;;15.50;100.00
49451;BME280;35336;48.400;10.886;2022-08-21T00:25:10;96345.72;;;15.48;100.00
49451;BME280;35336;48.400;10.886;2022-08-21T00:25:26;96368.19;;;15.54;100.00
49451;BME280;35336;48.400;10.886;2022-08-21T00:25:43;96364.22;;;15.56;100.00
49451;BME280;35336;48.400;10.886;2022-08-21T00:25:59;96346.75;;;15.47;100.00
49451;BME280;35336;48.400;10.886;2022-08-21T00:26:14;96343.50;;;15.45;100.00
49451;BME280;35336;48.400;10.886;2022-08-21T00:26:30;96354.63;;;15.49;100.00
49451;BME280;35336;48.400;10.886;2022-08-21T00:26:45;96348.53;;;15.53;100.00
49451;BME280;35336;48.400;10.886;2022-08-21T00:27:01;96349.00;;;15.50;100.00
49451;BME280;35336;48.400;10.886;2022-08-21T00:27:17;96376.00;;;15.55;100.00
49451;BME280;35336;48.400;10.886;2022-08-21T00:27:33;96350.97;;;15.43;100.00
49451;BME280;35336;48.400;10.886;2022-08-21T00:27:48;96353.91;;;15.53;100.00
49451;BME280;35336;48.400;10.886;2022-08-21T00:28:05;96362.56;;;15.55;100.00
49451;BME280;35336;48.400;10.886;2022-08-21T00:28:21;96354.13;;;15.52;100.00
49451;BME280;35336;48.400;10.886;2022-08-21T00:28:37;96322.41;;;15.30;100.00
49451;BME280;35336;48.400;10.886;2022-08-21T00:28:52;96351.69;;;15.50;100.00
49451;BME280;35336;48.400;10.886;2022-08-21T00:29:08;96358.84;;;15.56;100.00
49451;BME280;35336;48.400;10.886;2022-08-21T00:29:23;96340.44;;;15.42;100.00
49451;BME280;35336;48.400;10.886;2022-08-21T00:29:39;96365.03;;;15.57;100.00
49451;BME280;35336;48.400;10.886;2022-08-21T00:29:54;96336.69;;;15.43;100.00
49451;BME280;35336;48.400;10.886;2022-08-21T00:30:13;96358.03;;;15.56;100.00
49451;BME280;35336;48.400;10.886;2022-08-21T00:30:29;96341.84;;;15.44;100.00
49451;BME280;35336;48.400;10.886;2022-08-21T00:30:45;96313.16;;;15.26;100.00
49451;BME280;35336;48.400;10.886;2022-08-21T00:31:00;96348.75;;;15.52;100.00
49451;BME280;35336;48.400;10.886;2022-08-21T00:31:18;96337.28;;;15.45;100.00
49451;BME280;35336;48.400;10.886;2022-08-21T00:31:34;96362.56;;;15.55;100.00
49451;BME280;35336;48.400;10.886;2022-08-21T00:31:50;96358.84;;;15.56;100.00
49451;BME280;35336;48.400;10.886;2022-08-21T00:32:05;96352.88;;;15.54;100.00
49451;BME280;35336;48.400;10.886;2022-08-21T00:32:23;96352.88;;;15.54;100.00
49451;BME280;35336;48.400;10.886;2022-08-21T00:32:39;96349.59;;;15.52;100.00
49451;BME280;35336;48.400;10.886;2022-08-21T00:32:56;96353.34;;;15.51;100.00
49451;BME280;35336;48.400;10.886;2022-08-21T00:33:12;96349.81;;;15.51;100.00
49451;BME280;35336;48.400;10.886;2022-08-21T00:33:28;96355.34;;;15.56;100.00
49451;BME280;35336;48.400;10.886;2022-08-21T00:33:44;96352.88;;;15.54;100.00
49451;BME280;35336;48.400;10.886;2022-08-21T00:34:00;96326.66;;;15.38;100.00
49451;BME280;35336;48.400;10.886;2022-08-21T00:34:15;96350.66;;;15.51;100.00
49451;BME280;35336;48.400;10.886;2022-08-21T00:34:31;96361.97;;;15.53;100.00
49451;BME280;35336;48.400;10.886;2022-08-21T00:34:47;96354.13;;;15.52;100.00
49451;BME280;35336;48.400;10.886;2022-08-21T00:35:03;96334.25;;;15.41;100.00
49451;BME280;35336;48.400;10.886;2022-08-21T00:35:22;96358.25;;;15.54;100.00
49451;BME280;35336;48.400;10.886;2022-08-21T00:35:41;96339.16;;;15.44;100.00
49451;BME280;35336;48.400;10.886;2022-08-21T00:35:57;96330.38;;;15.37;100.00
49451;BME280;35336;48.400;10.886;2022-08-21T00:36:13;96333.44;;;15.40;100.00
49451;BME280;35336;48.400;10.886;2022-08-21T00:36:29;96352.06;;;15.54;100.00
49451;BME280;35336;48.400;10.886;2022-08-21T00:36:44;96350.41;;;15.53;100.00
49451;BME280;35336;48.400;10.886;2022-08-21T00:37:00;96356.97;;;15.57;100.00
49451;BME280;35336;48.400;10.886;2022-08-21T00:37:15;96356.16;;;15.56;100.00
49451;BME280;35336;48.400;10.886;2022-08-21T00:37:31;96346.69;;;15.54;100.00
49451;BME280;35336;48.400;10.886;2022-08-21T00:37:46;96334.84;;;15.43;100.00
49451;BME280;35336;48.400;10.886;2022-08-21T00:38:04;96358.84;;;15.56;100.00
49451;BME280;35336;48.400;10.886;2022-08-21T00:38:20;96354.28;;;15.57;100.00
49451;BME280;35336;48.400;10.886;2022-08-21T00:38:35;96341.31;;;15.54;100.00
49451;BME280;35336;48.400;10.886;2022-08-21T00:38:50;96356.16;;;15.56;100.00
49451;BME280;35336;48.400;10.886;2022-08-21T00:39:07;96341.19;;;15.49;100.00
49451;BME280;35336;48.400;10.886;2022-08-21T00:39:22;96331.91;;;15.45;100.00
49451;BME280;35336;48.400;10.886;2022-08-21T00:39:38;96332.97;;;15.44;100.00
49451;BME280;35336;48.400;10.886;2022-08-21T00:39:54;96329.47;;;15.43;100.00
49451;BME280;35336;48.400;10.886;2022-08-21T00:40:13;96329.09;;;15.39;100.00
49451;BME280;35336;48.400;10.886;2022-08-21T00:40:37;96350.78;;;15.56;100.00
49451;BME280;35336;48.400;10.886;2022-08-21T00:40:58;96301.00;;;15.23;100.00
49451;BME280;35336;48.400;10.886;2022-08-21T00:41:14;96332.38;;;15.42;100.00
49451;BME280;35336;48.400;10.886;2022-08-21T00:41:30;96334.59;;;15.45;100.00
49451;BME280;35336;48.400;10.886;2022-08-21T00:41:45;96330.75;;;15.40;100.00
49451;BME280;35336;48.400;10.886;2022-08-21T00:42:01;96351.81;;;15.55;100.00
49451;BME280;35336;48.400;10.886;2022-08-21T00:42:16;96344.22;;;15.52;100.00
49451;BME280;35336;48.400;10.886;2022-08-21T00:42:32;96348.44;;;15.60;100.00
49451;BME280;35336;48.400;10.886;2022-08-21T00:42:48;96349.25;;;15.61;100.00
49451;BME280;35336;48.400;10.886;2022-08-21T00:43:08;96358.97;;;15.62;100.00
49451;BME280;35336;48.400;10.886;2022-08-21T00:43:28;96332.28;;;15.48;100.00
49451;BME280;35336;48.400;10.886;2022-08-21T00:43:43;96357.91;;;15.63;100.00
49451;BME280;35336;48.400;10.886;2022-08-21T00:43:58;96351.94;;;15.61;100.00
49451;BME280;35336;48.400;10.886;2022-08-21T00:44:15;96341.75;;;15.51;100.00
49451;BME280;35336;48.400;10.886;2022-08-21T00:44:30;96349.13;;;15.55;100.00
49451;BME280;35336;48.400;10.886;2022-08-21T00:44:47;96346.44;;;15.55;100.00
49451;BME280;35336;48.400;10.886;2022-08-21T00:45:09;96296.09;;;15.20;100.00
49451;BME280;35336;48.400;10.886;2022-08-21T00:45:25;96327.00;;;15.42;100.00
49451;BME280;35336;48.400;10.886;2022-08-21T00:45:43;96351.81;;;15.55;100.00
49451;BME280;35336;48.400;10.886;2022-08-21T00:45:59;96292.19;;;15.16;100.00
49451;BME280;35336;48.400;10.886;2022-08-21T00:46:15;96336.94;;;15.41;100.00
49451;BME280;35336;48.400;10.886;2022-08-21T00:46:31;96352.06;;;15.54;100.00
49451;BME280;35336;48.400;10.886;2022-08-21T00:46:46;96347.59;;;15.48;100.00
49451;BME280;35336;48.400;10.886;2022-08-21T00:47:01;96343.25;;;15.47;100.00
49451;BME280;35336;48.400;10.886;2022-08-21T00:47:18;96313.97;;;15.27;100.00
49451;BME280;35336;48.400;10.886;2022-08-21T00:47:34;96355.78;;;15.53;100.00
49451;BME280;35336;48.400;10.886;2022-08-21T00:47:51;96333.19;;;15.42;100.00
49451;BME280;35336;48.400;10.886;2022-08-21T00:48:07;96352.59;;;15.44;100.00
49451;BME280;35336;48.400;10.886;2022-08-21T00:48:23;96332.59;;;15.40;100.00
49451;BME280;35336;48.400;10.886;2022-08-21T00:48:39;96347.81;;;15.46;100.00
49451;BME280;35336;48.400;10.886;2022-08-21T00:48:55;96348.03;;;15.45;100.00
49451;BME280;35336;48.400;10.886;2022-08-21T00:49:11;96334.72;;;15.38;100.00
49451;BME280;35336;48.400;10.886;2022-08-21T00:49:27;96330.50;;;15.42;100.00
49451;BME280;35336;48.400;10.886;2022-08-21T00:49:43;96355.78;;;15.53;100.00
49451;BME280;35336;48.400;10.886;2022-08-21T00:49:58;96351.22;;;15.53;100.00
49451;BME280;35336;48.400;10.886;2022-08-21T00:50:14;96350.03;;;15.49;100.00
49451;BME280;35336;48.400;10.886;2022-08-21T00:50:32;96346.31;;;15.50;100.00
49451;BME280;35336;48.400;10.886;2022-08-21T00:50:55;96331.19;;;15.37;100.00
49451;BME280;35336;48.400;10.886;2022-08-21T00:51:16;96336.69;;;15.43;100.00
49451;BME280;35336;48.400;10.886;2022-08-21T00:51:58;96348.88;;;15.45;100.00
49451;BME280;35336;48.400;10.886;2022-08-21T00:52:21;96327.09;;;15.35;100.00
49451;BME280;35336;48.400;10.886;2022-08-21T00:52:38;96329.19;;;15.33;100.00
49451;BME280;35336;48.400;10.886;2022-08-21T00:52:55;96349.31;;;15.42;100.00
49451;BME280;35336;48.400;10.886;2022-08-21T00:53:11;96332.53;;;15.28;100.00
49451;BME280;35336;48.400;10.886;2022-08-21T00:53:28;96316.38;;;15.16;100.00
49451;BME280;35336;48.400;10.886;2022-08-21T00:53:45;96341.34;;;15.35;100.00
49451;BME280;35336;48.400;10.886;2022-08-21T00:54:02;96308.41;;;15.09;100.00
49451;BME280;35336;48.400;10.886;2022-08-21T00:54:21;96341.44;;;15.29;100.00
49451;BME280;35336;48.400;10.886;2022-08-21T00:54:39;96353.97;;;15.35;100.00
49451;BME280;35336;48.400;10.886;2022-08-21T00:54:58;96335.47;;;15.27;100.00
49451;BME280;35336;48.400;10.886;2022-08-21T00:55:14;96335.47;;;15.27;100.00
49451;BME280;35336;48.400;10.886;2022-08-21T00:55:32;96348.22;;;15.31;100.00
49451;BME280;35336;48.400;10.886;2022-08-21T00:55:49;96348.59;;;15.35;100.00
49451;BME280;35336;48.400;10.886;2022-08-21T00:56:06;96349.63;;;15.34;100.00
49451;BME280;35336;48.400;10.886;2022-08-21T00:56:24;96347.78;;;15.34;100.00
49451;BME280;35336;48.400;10.886;2022-08-21T00:56:40;96329.59;;;15.18;100.00
49451;BME280;35336;48.400;10.886;2022-08-21T00:57:02;96347.63;;;15.29;100.00
49451;BME280;35336;48.400;10.886;2022-08-21T00:57:24;96334.72;;;15.19;100.00
49451;BME280;35336;48.400;10.886;2022-08-21T00:57:46;96351.72;;;15.32;100.00
49451;BME280;35336;48.400;10.886;2022-08-21T00:58:05;96351.13;;;15.30;100.00
49451;BME280;35336;48.400;10.886;2022-08-21T00:58:22;96353.59;;;15.31;100.00
49451;BME280;35336;48.400;10.886;2022-08-21T00:58:40;96339.84;;;15.21;100.00
49451;BME280;35336;48.400;10.886;2022-08-21T00:58:57;96364.69;;;15.35;100.00
49451;BME280;35336;48.400;10.886;2022-08-21T00:59:16;96326.44;;;15.21;100.00
49451;BME280;35336;48.400;10.886;2022-08-21T00:59:35;96350.09;;;15.31;100.00
49451;BME280;35336;48.400;10.886;2022-08-21T00:59:54;96357.69;;;15.34;100.00
49451;BME280;35336;48.400;10.886;2022-08-21T01:00:20;96357.69;;;15.34;100.00
49451;BME280;35336;48.400;10.886;2022-08-21T01:00:39;96344.50;;;15.32;100.00
49451;BME280;35336;48.400;10.886;2022-08-21T01:00:54;96351.50;;;15.33;100.00
49451;BME280;35336;48.400;10.886;2022-08-21T01:01:10;96348.81;;;15.33;100.00
49451;BME280;35336;48.400;10.886;2022-08-21T01:01:26;96337.19;;;15.21;100.00
49451;BME280;35336;48.400;10.886;2022-08-21T01:01:42;96329.34;;;15.19;100.00
49451;BME280;35336;48.400;10.886;2022-08-21T01:01:58;96326.06;;;15.17;100.00
49451;BME280;35336;48.400;10.886;2022-08-21T01:02:13;96351.94;;;15.30;100.00
49451;BME280;35336;48.400;10.886;2022-08-21T01:02:29;96353.59;;;15.31;100.00
49451;BME280;35336;48.400;10.886;2022-08-21T01:02:45;96328.53;;;15.19;100.00
49451;BME280;35336;48.400;10.886;2022-08-21T01:03:06;96332.03;;;15.19;100.00
49451;BME280;35336;48.400;10.886;2022-08-21T01:03:23;96333.69;;;15.20;100.00
49451;BME280;35336;48.400;10.886;2022-08-21T01:03:40;96324.88;;;15.13;100.00
49451;BME280;35336;48.400;10.886;2022-08-21T01:03:56;96319.28;;;15.15;100.00
49451;BME280;35336;48.400;10.886;2022-08-21T01:04:11;96339.19;;;15.25;100.00
49451;BME280;35336;48.400;10.886;2022-08-21T01:04:27;96345.16;;;15.28;100.00
49451;BME280;35336;48.400;10.886;2022-08-21T01:04:43;96320.56;;;15.12;100.00
49451;BME280;35336;48.400;10.886;2022-08-21T01:04:58;96347.84;;;15.28;100.00
49451;BME280;35336;48.400;10.886;2022-08-21T01:05:14;96355.91;;;15.28;100.00
49451;BME280;35336;48.400;10.886;2022-08-21T01:05:29;96350.53;;;15.28;100.00
49451;BME280;35336;48.400;10.886;2022-08-21T01:05:45;96356.13;;;15.26;100.00
49451;BME280;35336;48.400;10.886;2022-08-21T01:06:01;96322.50;;;15.05;100.00
49451;BME280;35336;48.400;10.886;2022-08-21T01:06:20;96345.59;;;15.24;100.00
49451;BME280;35336;48.400;10.886;2022-08-21T01:06:35;96353.66;;;15.24;100.00
49451;BME280;35336;48.400;10.886;2022-08-21T01:06:50;96342.19;;;15.17;100.00
49451;BME280;35336;48.400;10.886;2022-08-21T01:07:06;96331.31;;;15.12;100.00
49451;BME280;35336;48.400;10.886;2022-08-21T01:07:22;96341.13;;;15.18;100.00
49451;BME280;35336;48.400;10.886;2022-08-21T01:07:38;96337.66;;;15.18;100.00
49451;BME280;35336;48.400;10.886;2022-08-21T01:07:54;96344.66;;;15.19;100.00
49451;BME280;35336;48.400;10.886;2022-08-21T01:08:13;96343.38;;;15.21;100.00
49451;BME280;35336;48.400;10.886;2022-08-21T01:08:29;96309.75;;;15.00;100.00
49451;BME280;35336;48.400;10.886;2022-08-21T01:08:45;96347.47;;;15.24;100.00
49451;BME280;35336;48.400;10.886;2022-08-21T01:09:01;96310.78;;;14.99;100.00
49451;BME280;35336;48.400;10.886;2022-08-21T01:09:17;96353.47;;;15.26;100.00
49451;BME280;35336;48.400;10.886;2022-08-21T01:09:34;96339.84;;;15.21;100.00
49451;BME280;35336;48.400;10.886;2022-08-21T01:09:50;96344.78;;;15.24;100.00
49451;BME280;35336;48.400;10.886;2022-08-21T01:10:07;96338.09;;;15.15;100.00
49451;BME280;35336;48.400;10.886;2022-08-21T01:10:23;96352.03;;;15.23;100.00
49451;BME280;35336;48.400;10.886;2022-08-21T01:10:39;96293.38;;;14.90;100.00
49451;BME280;35336;48.400;10.886;2022-08-21T01:10:55;96316.34;;;15.04;100.00
49451;BME280;35336;48.400;10.886;2022-08-21T01:11:12;96345.03;;;15.22;100.00
49451;BME280;35336;48.400;10.886;2022-08-21T01:11:27;96331.53;;;15.11;100.00
49451;BME280;35336;48.400;10.886;2022-08-21T01:11:43;96346.69;;;15.23;100.00
49451;BME280;35336;48.400;10.886;2022-08-21T01:11:59;96344.88;;;15.17;100.00
49451;BME280;35336;48.400;10.886;2022-08-21T01:12:15;96293.56;;;14.88;100.00
49451;BME280;35336;48.400;10.886;2022-08-21T01:12:33;96324.75;;;15.08;100.00
49451;BME280;35336;48.400;10.886;2022-08-21T01:12:53;96342.34;;;15.22;100.00
49451;BME280;35336;48.400;10.886;2022-08-21T01:13:11;96324.53;;;15.09;100.00
49451;BME280;35336;48.400;10.886;2022-08-21T01:13:30;96326.59;;;15.07;100.00
49451;BME280;35336;48.400;10.886;2022-08-21T01:13:47;96331.16;;;15.07;100.00
49451;BME280;35336;48.400;10.886;2022-08-21T01:14:05;96305.66;;;14.98;100.00
49451;BME280;35336;48.400;10.886;2022-08-21T01:14:21;96325.31;;;15.10;100.00
49451;BME280;35336;48.400;10.886;2022-08-21T01:14:38;96327.56;;;15.13;100.00
49451;BME280;35336;48.400;10.886;2022-08-21T01:14:55;96342.09;;;15.24;100.00
49451;BME280;35336;48.400;10.886;2022-08-21T01:15:12;96341.13;;;15.18;100.00
49451;BME280;35336;48.400;10.886;2022-08-21T01:15:34;96329.28;;;15.07;100.00
49451;BME280;35336;48.400;10.886;2022-08-21T01:15:52;96341.50;;;15.22;100.00
49451;BME280;35336;48.400;10.886;2022-08-21T01:16:09;96331.06;;;15.14;100.00
49451;BME280;35336;48.400;10.886;2022-08-21T01:16:24;96338.44;;;15.18;100.00
49451;BME280;35336;48.400;10.886;2022-08-21T01:16:43;96350.16;;;15.24;100.00
49451;BME280;35336;48.400;10.886;2022-08-21T01:17:00;96352.03;;;15.23;100.00
49451;BME280;35336;48.400;10.886;2022-08-21T01:17:19;96350.41;;;15.22;100.00
49451;BME280;35336;48.400;10.886;2022-08-21T01:17:36;96331.53;;;15.11;100.00
49451;BME280;35336;48.400;10.886;2022-08-21T01:17:52;96352.84;;;15.24;100.00
49451;BME280;35336;48.400;10.886;2022-08-21T01:18:10;96343.81;;;15.18;100.00
49451;BME280;35336;48.400;10.886;2022-08-21T01:18:27;96352.84;;;15.24;100.00
49451;BME280;35336;48.400;10.886;2022-08-21T01:18:44;96348.28;;;15.24;100.00
49451;BME280;35336;48.400;10.886;2022-08-21T01:19:00;96351.22;;;15.23;100.00
49451;BME280;35336;48.400;10.886;2022-08-21T01:19:17;96350.41;;;15.22;100.00
49451;BME280;35336;48.400;10.886;2022-08-21T01:19:33;96333.38;;;15.10;100.00
49451;BME280;35336;48.400;10.886;2022-08-21T01:19:49;96327.44;;;15.08;100.00
49451;BME280;35336;48.400;10.886;2022-08-21T01:20:08;96347.13;;;15.20;100.00
49451;BME280;35336;48.400;10.886;2022-08-21T01:20:24;96346.31;;;15.20;100.00
49451;BME280;35336;48.400;10.886;2022-08-21T01:20:44;96340.53;;;15.16;100.00
49451;BME280;35336;48.400;10.886;2022-08-21T01:21:11;96349.19;;;15.18;100.00
49451;BME280;35336;48.400;10.886;2022-08-21T01:21:27;96344.66;;;15.19;100.00
49451;BME280;35336;48.400;10.886;2022-08-21T01:21:43;96321.09;;;15.02;100.00
49451;BME280;35336;48.400;10.886;2022-08-21T01:21:59;96338.38;;;15.06;100.00
49451;BME280;35336;48.400;10.886;2022-08-21T01:22:14;96350.91;;;15.13;100.00
49451;BME280;35336;48.400;10.886;2022-08-21T01:22:30;96353.38;;;15.14;100.00
49451;BME280;35336;48.400;10.886;2022-08-21T01:22:45;96352.56;;;15.14;100.00
49451;BME280;35336;48.400;10.886;2022-08-21T01:23:04;96343.69;;;15.13;100.00
49451;BME280;35336;48.400;10.886;2022-08-21T01:23:20;96340.50;;;15.04;100.00
49451;BME280;35336;48.400;10.886;2022-08-21T01:23:37;96353.81;;;15.11;100.00
49451;BME280;35336;48.400;10.886;2022-08-21T01:23:54;96343.09;;;15.11;100.00
49451;BME280;35336;48.400;10.886;2022-08-21T01:24:10;96331.59;;;15.04;100.00
49451;BME280;35336;48.400;10.886;2022-08-21T01:24:26;96348.47;;;15.11;100.00
49451;BME280;35336;48.400;10.886;2022-08-21T01:24:42;96343.09;;;15.11;100.00
49451;BME280;35336;48.400;10.886;2022-08-21T01:24:57;96293.50;;;14.76;100.00
49451;BME280;35336;48.400;10.886;2022-08-21T01:25:17;96346.25;;;15.08;100.00
49451;BME280;35336;48.400;10.886;2022-08-21T01:25:35;96288.38;;;14.75;100.00
49451;BME280;35336;48.400;10.886;2022-08-21T01:25:50;96325.97;;;14.93;100.00
49451;BME280;35336;48.400;10.886;2022-08-21T01:26:06;96339.44;;;15.05;100.00
49451;BME280;35336;48.400;10.886;2022-08-21T01:26:27;96338.63;;;15.05;100.00
49451;BME280;35336;48.400;10.886;2022-08-21T01:26:44;96340.25;;;15.06;100.00